site sitenws-alerts: Checking more than four warning/county codes can delay the loading of your pages. You should use a cron job to get the data.

Nearby METAR Weather Reports

 

KDMA - Davis/Tucson, Arizona, USA
Distance from station: W 21mi, 34km
Updated: 05/21/2019 7:58am
Clear
Clear
 Wind from SE
Wind: SE 6 mph , 9 km/h
Temperature: 61°F , 16°C
Dew Point: 37°F , 3°C
Humidity: 42%
Barometer: 29.90 inHg , 1012.5 hPa
Clouds: Clear
Visibility: 10 miles , 16 km
2019/05/21 14:58 KDMA 211458Z AUTO 13005KT 10SM CLR 16/03 A2990 RMK AO2 SLP099 T01600027 52008 $
KTUS - Tucson, Arizona, USA
Distance from station: W 26mi, 42km
Updated: 05/21/2019 7:53am
Clear
Clear
 Wind from SE
Wind: SE 12 mph , 19 km/h
Temperature: 61°F , 16°C
Dew Point: 37°F , 3°C
Humidity: 42%
Barometer: 29.92 inHg , 1013.2 hPa
Clouds: Clear
Visibility: 10 miles , 16 km
2019/05/21 14:53 KTUS 211453Z 14010KT 10SM CLR 16/03 A2992 RMK AO2 SLP103 T01560028 53006
 
KALK - Pioneer Airfield, Arizona, USA
Distance from station: S 37mi, 60km
Updated: 05/21/2019 7:56am
Clear
Clear
 Wind from SW
Wind: SW 10 mph , 17 km/h
Temperature: 54°F , 12°C
Dew Point: 28°F , -2°C
Humidity: 38%
Barometer: 29.96 inHg , 1014.6 hPa
Clouds: Clear
Visibility: 10 miles , 16 km
2019/05/21 14:56 KALK 211456Z AUTO 23009KT 10SM CLR 12/M02 A2996 RMK AO2 SLP085 T01221017 51003
KRYN - Tucson/Ryan Fld, Arizona, USA
Distance from station: W 39mi, 62km
Updated: 05/21/2019 7:45am
Clear
Clear
 Wind from ENE
Wind: ENE 3 mph , 6 km/h
Temperature: 59°F , 15°C
Dew Point: 37°F , 3°C
Humidity: 45%
Barometer: 29.92 inHg , 1013.2 hPa
Clouds: Clear
Visibility: 10 miles , 16 km
2019/05/21 14:45 KRYN 211445Z 07003KT 10SM CLR 15/03 A2992
 
KFHU - Fort Huachuca, Arizona, USA
Distance from station: SSE 39mi, 63km
Updated: 05/21/2019 7:58am
Clear
Clear
 Wind from SSE
Wind: SSE 6 mph , 9 km/h
Temperature: 55°F , 13°C
Dew Point: 25°F , -4°C
Humidity: 31%
Barometer: 29.96 inHg , 1014.6 hPa
Clouds: Clear
Visibility: 10 miles , 16 km
2019/05/21 14:58 KFHU 211458Z AUTO 15005KT 10SM CLR 13/M04 A2996 RMK AO2 SLP107 52008
KOLS - Nogales, Arizona, USA
Distance from station: SSW 54mi, 86km
Updated: 05/21/2019 7:54am
Clear
Clear
 Wind from varies
Wind: varies 6 mph , 9 km/h
Temperature: 57°F , 14°C
Dew Point: 34°F , 1°C
Humidity: 41%
Barometer: 29.93 inHg , 1013.5 hPa
Clouds: Clear
Visibility: 10 miles , 16 km
2019/05/21 14:54 KOLS 211454Z AUTO VRB05KT 10SM CLR 14/01 A2993 RMK AO2 SLP096 T01390006 51004
 
KDUG - Douglas Bisbee, Arizona, USA
Distance from station: SE 71mi, 114km
Updated: 05/21/2019 7:56am
Clear
Clear
 Wind from varies
Wind: varies 3 mph , 6 km/h
Temperature: 54°F , 12°C
Dew Point: 28°F , -2°C
Humidity: 38%
Barometer: 29.94 inHg , 1013.9 hPa
Clouds: Clear
Visibility: 10 miles , 16 km
2019/05/21 14:56 KDUG 211456Z AUTO VRB03KT 10SM CLR 12/M02 A2994 RMK AO2 SLP101 T01171022 50004
KSAD - Safford, Arizona, USA
Distance from station: NE 71mi, 114km
Updated: 05/21/2019 7:51am
Clear
Clear
 Wind from calm
Wind: Calm
Temperature: 55°F , 13°C
Dew Point: 32°F , 0°C
Humidity: 41%
Barometer: 29.91 inHg , 1012.9 hPa
Clouds: Clear
Visibility: 10 miles , 16 km
2019/05/21 14:51 KSAD 211451Z AUTO 00000KT 10SM CLR 13/00 A2991 RMK AO2 SLP105 T01280000 51007
 
KCGZ - Casa Granda, Arizona, USA
Distance from station: NW 93mi, 149km
Updated: 05/21/2019 7:56am
Clear
Clear
 Wind from S
Wind: S 7 mph , 11 km/h
Temperature: 64°F , 18°C
Dew Point: 45°F , 7°C
Humidity: 49%
Barometer: 29.87 inHg , 1011.5 hPa
Clouds: Clear
Visibility: 10 miles , 16 km
2019/05/21 14:56 KCGZ 211456Z AUTO 18006KT 10SM CLR 18/07 A2987 RMK AO2 SLP106 T01830067 50004 $
KLSB - Lordsburg, New Mexico, USA
Distance from station: E 106mi, 171km
Updated: 02/26/2018 1:22pm
NOT Current
Clear
Clear
 Wind from ESE
Wind: ESE 13 mph , 20 km/h, Gust: 18 mph , 30 km/h
Temperature: 63°F , 17°C
Dew Point: 10°F , -12°C
Humidity: 13%
Barometer: 30.04 inHg , 1017.3 hPa
Clouds: Clear
Visibility: 10 miles , 16 km
2018/02/26 20:22 KLSB 262022Z AUTO 11011G16KT 090V150 10SM CLR 17/M12 A3004
 
KPHX - Phoenix/Sky Hrbr, Arizona, USA
Distance from station: NW 126mi, 202km
Updated: 05/21/2019 7:51am
Few Clouds
Few Clouds
 Wind from ESE
Wind: ESE 9 mph , 15 km/h
Temperature: 63°F , 17°C
Dew Point: 39°F , 4°C
Humidity: 42%
Barometer: 29.82 inHg , 1009.8 hPa
Clouds: Few Clouds
Visibility: 10 miles , 16 km
Cloud details: Few Clouds 25000 ft
2019/05/21 14:51 KPHX 211451Z 12008KT 10SM FEW250 17/04 A2982 RMK AO2 SLP088 T01720044 50006
KGXF - Gila Bend (aaf), Arizona, USA
Distance from station: WNW 139mi, 223km
Updated: 05/21/2019 7:58am
Clear
Clear
 Wind from calm
Wind: Calm
Temperature: 66°F , 19°C
Dew Point: 46°F , 8°C
Humidity: 49%
Barometer: 29.83 inHg , 1010.2 hPa
Clouds: Clear
Visibility: 10 miles , 16 km
2019/05/21 14:58 KGXF 211458Z AUTO 00000KT 10SM CLR 19/08 A2983 RMK AO2 SLP093 50005
 
KSVC - Silver City, New Mexico, USA
Distance from station: ENE 142mi, 228km
Updated: 05/21/2019 8:15am
Clear
Clear
 Wind from WNW
Wind: WNW 21 mph , 33 km/h, Gust: 30 mph , 48 km/h
Temperature: 50°F , 10°C
Wind Chill: 43°F , 6°C
Dew Point: 30°F , -1°C
Humidity: 47%
Barometer: 29.92 inHg , 1013.2 hPa
Clouds: Clear
Visibility: 10 miles , 16 km
2019/05/21 15:15 KSVC 211515Z AUTO 29018G26KT 10SM CLR 10/M01 A2992 RMK AO2 T00991015
KLUF - Luke Afb/Glendal, Arizona, USA
Distance from station: NW 144mi, 232km
Updated: 05/21/2019 7:58am
Clear
Clear
 Wind from S
Wind: S 12 mph , 19 km/h
Temperature: 64°F , 18°C
Dew Point: 41°F , 5°C
Humidity: 43%
Barometer: 29.83 inHg , 1010.2 hPa
Clouds: Clear
Visibility: 10 miles , 16 km
2019/05/21 14:58 KLUF 211458Z AUTO 17010KT 10SM CLR 18/05 A2983 RMK AO2 SLP094 T01840046 52007 $